Time;durP1;ratioP1;P1;durP2;ratioP2;P2;SDS_P1;SDS_P2;PMS_P1;PMS_P2;Temp;Humidity;BMP_temperature;BMP_pressure;BME280_temperature;BME280_humidity;BME280_pressure;Samples;Min_cycle;Max_cycle;Signal;HPM_P1;HPM_P2
2023/04/19 00:00:39;;;;;;;8.10;4.88;;;12.00;79.60;;;;;;5003181;28;20510;-85
2023/04/19 00:03:06;;;;;;;8.15;4.97;;;12.00;79.60;;;;;;5025686;28;20628;-85
2023/04/19 00:05:32;;;;;;;8.75;5.22;;;12.00;79.80;;;;;;5005459;28;20239;-85
2023/04/19 00:07:58;;;;;;;8.53;5.27;;;11.90;79.80;;;;;;5017599;28;20274;-86
2023/04/19 00:10:24;;;;;;;8.30;4.95;;;11.90;80.00;;;;;;5036808;28;20121;-85
2023/04/19 00:12:50;;;;;;;7.85;5.05;;;11.80;80.00;;;;;;5023750;28;20665;-86
2023/04/19 00:15:17;;;;;;;7.65;4.82;;;11.90;79.90;;;;;;5033946;28;20500;-85
2023/04/19 00:17:42;;;;;;;8.53;5.50;;;11.80;79.90;;;;;;5039111;28;20448;-86
2023/04/19 00:20:09;;;;;;;8.50;5.00;;;11.80;80.10;;;;;;5013804;28;20429;-85
2023/04/19 00:22:35;;;;;;;7.93;4.88;;;11.80;80.10;;;;;;5018995;28;20449;-86
2023/04/19 00:25:01;;;;;;;8.60;5.17;;;11.80;80.10;;;;;;5018967;28;20487;-85
2023/04/19 00:27:27;;;;;;;8.70;5.25;;;11.70;80.30;;;;;;5028360;28;20720;-86
2023/04/19 00:29:52;;;;;;;8.23;4.85;;;11.70;80.40;;;;;;5010971;28;20048;-85
2023/04/19 00:32:18;;;;;;;8.33;4.63;;;11.70;80.40;;;;;;5033461;28;20044;-85
2023/04/19 00:34:44;;;;;;;8.70;5.25;;;11.60;80.40;;;;;;5038503;28;20670;-86
2023/04/19 00:37:10;;;;;;;8.23;4.87;;;11.60;80.40;;;;;;5033146;28;20033;-86
2023/04/19 00:39:36;;;;;;;7.20;4.70;;;11.60;80.50;;;;;;4981652;28;20055;-86
2023/04/19 00:42:02;;;;;;;8.15;4.97;;;11.60;80.50;;;;;;5018001;28;20602;-85
2023/04/19 00:44:27;;;;;;;9.70;5.63;;;11.50;80.40;;;;;;5017871;28;20025;-85
2023/04/19 00:46:55;;;;;;;8.65;5.10;;;11.50;80.70;;;;;;5030233;28;20664;-85
2023/04/19 00:49:22;;;;;;;8.60;5.35;;;11.50;80.70;;;;;;5024812;28;20433;-86
2023/04/19 00:51:51;;;;;;;7.10;4.53;;;11.50;80.90;;;;;;5003881;28;20024;-85
2023/04/19 00:54:18;;;;;;;8.18;4.88;;;11.40;81.00;;;;;;5036363;28;20028;-86
2023/04/19 00:56:44;;;;;;;8.55;5.22;;;11.40;81.20;;;;;;5013130;28;20027;-86
2023/04/19 00:59:11;;;;;;;7.57;4.80;;;11.40;81.20;;;;;;5010570;28;20239;-85
2023/04/19 01:01:37;;;;;;;8.15;4.88;;;11.40;81.30;;;;;;5017340;28;20032;-86
2023/04/19 01:04:07;;;;;;;9.60;5.00;;;11.40;81.50;;;;;;5041684;28;20358;-85
2023/04/19 01:06:39;;;;;;;8.27;4.97;;;11.40;81.70;;;;;;5033565;28;20048;-85
2023/04/19 01:09:04;;;;;;;7.90;4.95;;;11.40;81.90;;;;;;5007723;28;20037;-86
2023/04/19 01:11:30;;;;;;;8.27;5.30;;;11.40;81.60;;;;;;5001013;28;20064;-85
2023/04/19 01:13:57;;;;;;;8.43;4.87;;;11.40;81.70;;;;;;5028944;28;20139;-85
2023/04/19 01:16:25;;;;;;;8.30;5.00;;;11.40;81.80;;;;;;5019989;28;20029;-85
2023/04/19 01:18:51;;;;;;;8.75;5.28;;;11.40;82.10;;;;;;5035256;28;20052;-86
2023/04/19 01:21:17;;;;;;;8.23;5.30;;;11.40;82.20;;;;;;5020610;28;20459;-87
2023/04/19 01:23:43;;;;;;;8.35;4.82;;;11.50;82.50;;;;;;5011991;28;20025;-86
2023/04/19 01:26:09;;;;;;;9.52;6.00;;;11.50;82.50;;;;;;4993792;28;20640;-85
2023/04/19 01:28:34;;;;;;;8.87;5.50;;;11.50;82.50;;;;;;5011106;28;20021;-86
2023/04/19 01:31:00;;;;;;;6.97;4.75;;;11.60;82.80;;;;;;4992502;28;20577;-85
2023/04/19 01:33:26;;;;;;;8.03;5.00;;;11.60;82.80;;;;;;5003234;28;20545;-85
2023/04/19 01:35:52;;;;;;;9.07;5.68;;;11.60;82.90;;;;;;5030116;28;20520;-85
2023/04/19 01:38:17;;;;;;;8.90;5.30;;;11.70;83.00;;;;;;5021918;28;20717;-86
2023/04/19 01:40:44;;;;;;;7.90;4.90;;;11.70;83.00;;;;;;5020707;28;20487;-84
2023/04/19 01:43:15;;;;;;;9.15;5.80;;;11.80;83.10;;;;;;5004137;28;20321;-85
2023/04/19 01:45:40;;;;;;;6.80;4.67;;;11.80;83.30;;;;;;5030298;28;20021;-86
2023/04/19 01:48:06;;;;;;;8.80;5.45;;;11.80;83.10;;;;;;5037132;28;20429;-85
2023/04/19 01:50:32;;;;;;;9.67;5.83;;;11.80;83.00;;;;;;5018997;28;20435;-86
2023/04/19 01:52:59;;;;;;;8.10;5.60;;;11.90;83.20;;;;;;5012446;28;20028;-86
2023/04/19 01:55:25;;;;;;;8.30;5.22;;;11.90;83.30;;;;;;5036793;28;20041;-84
2023/04/19 01:57:53;;;;;;;9.38;5.68;;;11.90;83.20;;;;;;4999708;28;20393;-86
2023/04/19 02:00:19;;;;;;;8.85;5.63;;;12.00;83.40;;;;;;5029787;28;20024;-85
2023/04/19 02:02:45;;;;;;;9.17;5.40;;;12.00;83.40;;;;;;4995670;28;20454;-85
2023/04/19 02:05:11;;;;;;;8.80;5.60;;;12.00;83.40;;;;;;5013136;28;20675;-86
2023/04/19 02:07:37;;;;;;;8.40;5.90;;;12.00;83.40;;;;;;5040804;28;20410;-85
2023/04/19 02:10:04;;;;;;;8.30;5.47;;;12.00;83.70;;;;;;5011822;28;20591;-85
2023/04/19 02:12:32;;;;;;;7.88;5.32;;;12.10;83.70;;;;;;5003766;28;20017;-86
2023/04/19 02:15:00;;;;;;;8.43;5.68;;;12.10;83.70;;;;;;5003385;28;20306;-84
2023/04/19 02:17:27;;;;;;;8.52;5.43;;;12.10;83.90;;;;;;5034331;28;20040;-85
2023/04/19 02:19:53;;;;;;;8.00;5.27;;;12.20;83.90;;;;;;5010149;28;20080;-86
2023/04/19 02:22:19;;;;;;;7.88;5.30;;;12.20;83.80;;;;;;5000466;28;20120;-85
2023/04/19 02:24:47;;;;;;;7.90;5.30;;;12.20;83.70;;;;;;5017601;28;20028;-86
2023/04/19 02:27:13;;;;;;;8.18;5.55;;;12.20;83.80;;;;;;5000668;28;20029;-85
2023/04/19 02:29:39;;;;;;;7.37;4.73;;;12.30;83.90;;;;;;4997717;28;20036;-84
2023/04/19 02:32:05;;;;;;;7.65;5.00;;;12.30;83.90;;;;;;5023620;28;20181;-86
2023/04/19 02:34:32;;;;;;;8.25;5.30;;;12.30;84.10;;;;;;5031701;28;20086;-85
2023/04/19 02:36:58;;;;;;;7.32;5.07;;;12.40;84.00;;;;;;5007573;28;20104;-85
2023/04/19 02:39:23;;;;;;;7.17;5.10;;;12.40;84.00;;;;;;5011369;28;20263;-85
2023/04/19 02:41:49;;;;;;;7.22;4.90;;;12.40;84.10;;;;;;5030344;28;20060;-86
2023/04/19 02:44:15;;;;;;;8.43;5.55;;;12.40;84.20;;;;;;5006109;28;20017;-85
2023/04/19 02:46:46;;;;;;;8.40;5.30;;;12.40;84.20;;;;;;4982837;28;20031;-86
2023/04/19 02:49:12;;;;;;;8.40;5.72;;;12.40;84.20;;;;;;5008671;28;20049;-85
2023/04/19 02:51:38;;;;;;;8.67;5.60;;;12.40;84.10;;;;;;5014521;28;20021;-86
2023/04/19 02:54:03;;;;;;;10.25;5.65;;;12.50;84.20;;;;;;5016188;28;20499;-85
2023/04/19 02:56:29;;;;;;;8.20;5.50;;;12.50;84.30;;;;;;5016063;28;20033;-85
2023/04/19 02:58:55;;;;;;;8.43;5.60;;;12.50;84.20;;;;;;5016596;28;20029;-85
2023/04/19 03:01:21;;;;;;;8.43;5.47;;;12.50;84.30;;;;;;5017909;28;20364;-85
2023/04/19 03:03:47;;;;;;;8.03;5.33;;;12.50;84.40;;;;;;5016450;28;20029;-86
2023/04/19 03:06:13;;;;;;;7.80;4.87;;;12.50;84.40;;;;;;5009322;28;20103;-84
2023/04/19 03:08:39;;;;;;;7.43;4.72;;;12.50;84.40;;;;;;5031192;28;20078;-85
2023/04/19 03:11:05;;;;;;;7.57;4.82;;;12.50;84.50;;;;;;5012765;28;20132;-84
2023/04/19 03:13:31;;;;;;;8.05;5.22;;;12.50;84.50;;;;;;5008241;28;20013;-85
2023/04/19 03:15:57;;;;;;;7.87;5.17;;;12.60;84.50;;;;;;5009769;28;20113;-85
2023/04/19 03:18:22;;;;;;;8.95;5.88;;;12.60;84.60;;;;;;4990512;28;20104;-86
2023/04/19 03:20:48;;;;;;;8.67;5.17;;;12.60;84.50;;;;;;5016177;28;20032;-86
2023/04/19 03:23:14;;;;;;;7.18;4.90;;;12.60;84.60;;;;;;5025351;28;20118;-85
2023/04/19 03:25:39;;;;;;;10.17;5.83;;;12.60;84.60;;;;;;5034253;28;20025;-85
2023/04/19 03:28:05;;;;;;;9.20;5.93;;;12.60;84.60;;;;;;5011012;28;20327;-85
2023/04/19 03:30:31;;;;;;;9.68;5.68;;;12.60;84.60;;;;;;5017795;28;20052;-84
2023/04/19 03:32:57;;;;;;;8.27;5.27;;;12.60;84.80;;;;;;5010335;28;20033;-84
2023/04/19 03:35:25;;;;;;;7.80;5.30;;;12.60;84.90;;;;;;5016152;28;20033;-86
2023/04/19 03:37:51;;;;;;;7.97;5.03;;;12.60;84.90;;;;;;5008087;28;20025;-86
2023/04/19 03:40:16;;;;;;;7.72;5.00;;;12.60;84.90;;;;;;5038583;28;20051;-85
2023/04/19 03:42:42;;;;;;;7.43;5.00;;;12.60;85.60;;;;;;5010375;28;20021;-86
2023/04/19 03:45:08;;;;;;;8.65;5.53;;;12.70;84.90;;;;;;5024667;28;20225;-85
2023/04/19 03:47:34;;;;;;;7.93;5.38;;;12.60;85.00;;;;;;5038521;28;20029;-86
2023/04/19 03:50:00;;;;;;;9.73;6.10;;;12.60;85.00;;;;;;4997590;28;20139;-85
2023/04/19 03:52:26;;;;;;;8.88;5.68;;;12.60;85.00;;;;;;5022289;28;20029;-86
2023/04/19 03:54:52;;;;;;;9.60;5.53;;;12.60;85.00;;;;;;5019578;28;20044;-85
2023/04/19 03:57:18;;;;;;;9.73;5.67;;;12.60;85.00;;;;;;5031900;28;20124;-86
2023/04/19 03:59:43;;;;;;;9.20;5.90;;;12.60;85.10;;;;;;5033314;28;20132;-86
2023/04/19 04:02:09;;;;;;;10.73;6.88;;;12.60;85.10;;;;;;5021207;28;20173;-85
2023/04/19 04:04:35;;;;;;;9.87;5.90;;;12.60;85.20;;;;;;4978854;28;20013;-86
2023/04/19 04:07:01;;;;;;;9.45;5.80;;;12.70;85.10;;;;;;5017951;28;20044;-85
2023/04/19 04:09:26;;;;;;;9.18;5.90;;;12.60;85.00;;;;;;5031026;28;20038;-83
2023/04/19 04:11:52;;;;;;;8.57;5.27;;;12.60;85.00;;;;;;5040503;28;20514;-86
2023/04/19 04:14:18;;;;;;;10.03;5.90;;;12.60;85.00;;;;;;5017825;28;20302;-85
2023/04/19 04:16:43;;;;;;;9.30;5.93;;;12.60;84.80;;;;;;5010001;28;20310;-85
2023/04/19 04:19:09;;;;;;;10.43;6.30;;;12.60;84.80;;;;;;5021567;28;20037;-84
2023/04/19 04:21:35;;;;;;;9.05;5.47;;;12.50;84.80;;;;;;5012379;28;20013;-85
2023/04/19 04:24:00;;;;;;;9.57;5.63;;;12.50;84.70;;;;;;5015090;28;20186;-85
2023/04/19 04:26:29;;;;;;;9.77;5.55;;;12.40;84.60;;;;;;5008074;28;20076;-85
2023/04/19 04:28:56;;;;;;;9.27;5.53;;;12.40;84.60;;;;;;5013439;28;20726;-84
2023/04/19 04:31:22;;;;;;;9.13;5.53;;;12.30;84.60;;;;;;5006140;28;20403;-86
2023/04/19 04:33:47;;;;;;;9.02;5.45;;;12.30;84.60;;;;;;4988269;28;20113;-85
2023/04/19 04:36:14;;;;;;;9.80;5.72;;;12.20;84.70;;;;;;5007045;28;20021;-85
2023/04/19 04:38:39;;;;;;;8.67;5.50;;;12.20;84.70;;;;;;5037514;28;20052;-85
2023/04/19 04:41:05;;;;;;;9.32;5.95;;;12.10;84.70;;;;;;5035981;28;20059;-85
2023/04/19 04:43:31;;;;;;;9.43;5.70;;;12.00;84.70;;;;;;5019678;28;20478;-83
2023/04/19 04:45:56;;;;;;;9.52;5.55;;;12.00;85.00;;;;;;5011276;28;20366;-85
2023/04/19 04:48:23;;;;;;;8.80;5.23;;;12.00;85.20;;;;;;5040934;28;20675;-86
2023/04/19 04:50:49;;;;;;;8.27;5.20;;;11.90;85.20;;;;;;5014085;28;20028;-85
2023/04/19 04:53:14;;;;;;;9.68;6.03;;;11.90;85.20;;;;;;5018538;28;20540;-85
2023/04/19 04:55:40;;;;;;;9.50;5.15;;;11.90;85.40;;;;;;5017825;28;20352;-85
2023/04/19 04:58:06;;;;;;;9.50;5.43;;;11.90;85.40;;;;;;5037986;28;20080;-85
2023/04/19 05:00:33;;;;;;;8.55;5.25;;;11.80;85.60;;;;;;5018385;28;20028;-85
2023/04/19 05:02:59;;;;;;;9.45;5.53;;;11.80;85.80;;;;;;5013091;28;20028;-85
2023/04/19 05:05:25;;;;;;;8.63;5.20;;;11.80;85.90;;;;;;5003218;28;22341;-85
2023/04/19 05:07:50;;;;;;;8.65;4.90;;;11.80;85.90;;;;;;4986146;28;20028;-85
2023/04/19 05:10:16;;;;;;;9.10;5.35;;;11.80;86.00;;;;;;5008427;28;20560;-85
2023/04/19 05:12:42;;;;;;;9.18;5.75;;;11.70;85.80;;;;;;5024232;28;20069;-85
2023/04/19 05:15:08;;;;;;;9.17;5.37;;;11.70;85.90;;;;;;5028057;28;20029;-87
2023/04/19 05:17:34;;;;;;;8.43;5.22;;;11.70;86.00;;;;;;5028730;28;20045;-85
2023/04/19 05:19:59;;;;;;;9.00;5.53;;;11.70;86.30;;;;;;5034212;28;20040;-86
2023/04/19 05:22:26;;;;;;;8.50;4.95;;;11.70;86.30;;;;;;4987722;28;20025;-84
2023/04/19 05:24:52;;;;;;;8.25;4.90;;;11.70;86.50;;;;;;4991528;28;20861;-85
2023/04/19 05:27:17;;;;;;;7.90;4.83;;;11.70;86.50;;;;;;4993432;28;20049;-85
2023/04/19 05:29:43;;;;;;;7.85;4.85;;;11.70;86.70;;;;;;5015109;28;20044;-86
2023/04/19 05:32:09;;;;;;;7.57;4.67;;;11.70;86.80;;;;;;5028662;28;20155;-85
2023/04/19 05:34:35;;;;;;;9.73;5.25;;;11.70;87.10;;;;;;5028673;28;20040;-85
2023/04/19 05:37:02;;;;;;;8.77;5.43;;;11.70;87.20;;;;;;4996510;28;20029;-86
2023/04/19 05:39:27;;;;;;;9.87;5.83;;;11.80;87.40;;;;;;5010963;28;20037;-85
2023/04/19 05:41:53;;;;;;;9.77;5.75;;;11.80;87.80;;;;;;4996519;28;20186;-85
2023/04/19 05:44:19;;;;;;;9.68;5.22;;;11.80;87.90;;;;;;4997695;28;20525;-85
2023/04/19 05:46:45;;;;;;;8.67;5.30;;;11.90;88.10;;;;;;4995149;28;20502;-85
2023/04/19 05:49:11;;;;;;;8.88;4.90;;;12.00;88.30;;;;;;5022650;28;20640;-85
2023/04/19 05:51:36;;;;;;;9.27;5.43;;;12.00;88.40;;;;;;5033540;28;20523;-86
2023/04/19 05:54:02;;;;;;;8.43;5.80;;;12.10;88.60;;;;;;4983695;28;20562;-86
2023/04/19 05:56:28;;;;;;;8.23;5.50;;;12.20;88.80;;;;;;5012694;28;20013;-85
2023/04/19 05:58:55;;;;;;;8.57;5.25;;;12.20;88.70;;;;;;5015296;28;20025;-86
2023/04/19 06:01:21;;;;;;;8.23;5.53;;;12.40;88.90;;;;;;5030478;28;20360;-85
2023/04/19 06:03:51;;;;;;;8.93;5.50;;;12.40;88.90;;;;;;5009547;28;20032;-85
2023/04/19 06:06:18;;;;;;;8.27;5.22;;;12.50;89.00;;;;;;4985802;28;20017;-85
2023/04/19 06:08:44;;;;;;;7.70;5.13;;;12.50;88.90;;;;;;5001841;28;20075;-86
2023/04/19 06:11:10;;;;;;;9.35;5.22;;;12.60;89.40;;;;;;4973507;28;20322;-84
2023/04/19 06:13:35;;;;;;;8.52;5.35;;;12.70;88.90;;;;;;5029139;28;20404;-86
2023/04/19 06:16:02;;;;;;;8.50;5.50;;;12.70;88.90;;;;;;5032732;28;20029;-86
2023/04/19 06:18:27;;;;;;;8.15;5.07;;;12.80;89.00;;;;;;5000029;28;20060;-85
2023/04/19 06:20:53;;;;;;;9.37;5.73;;;12.80;89.00;;;;;;5026036;28;20065;-85
2023/04/19 06:23:19;;;;;;;7.57;4.97;;;12.90;89.00;;;;;;5028518;28;20017;-86
2023/04/19 06:25:47;;;;;;;8.38;5.43;;;12.90;89.00;;;;;;4985017;28;20044;-85
2023/04/19 06:28:13;;;;;;;10.13;6.20;;;13.00;89.10;;;;;;5007099;28;22649;-86
2023/04/19 06:30:39;;;;;;;8.82;5.50;;;13.10;89.10;;;;;;5031636;28;20065;-86
2023/04/19 06:33:05;;;;;;;10.18;5.60;;;13.10;89.20;;;;;;5000693;28;20297;-86
2023/04/19 06:35:31;;;;;;;7.47;5.10;;;13.10;90.00;;;;;;4989488;28;20269;-86
2023/04/19 06:37:57;;;;;;;8.23;5.57;;;13.20;89.50;;;;;;5021490;28;20032;-85
2023/04/19 06:40:23;;;;;;;8.80;6.03;;;13.30;89.50;;;;;;4985643;28;20044;-85
2023/04/19 06:42:48;;;;;;;10.13;6.17;;;13.30;89.50;;;;;;5013205;28;20017;-85
2023/04/19 06:45:15;;;;;;;9.88;5.72;;;13.40;89.40;;;;;;5022685;28;20024;-85
2023/04/19 06:47:40;;;;;;;9.27;6.25;;;13.50;89.50;;;;;;5007157;28;20024;-87
2023/04/19 06:50:07;;;;;;;11.40;6.20;;;13.50;89.60;;;;;;5002835;28;20032;-86
2023/04/19 06:52:32;;;;;;;10.25;6.25;;;13.60;89.60;;;;;;5004140;28;20029;-85
2023/04/19 06:54:58;;;;;;;10.13;6.18;;;13.70;89.70;;;;;;5013506;28;20033;-85
2023/04/19 06:57:24;;;;;;;11.03;6.23;;;13.80;89.90;;;;;;5025274;28;20227;-86
2023/04/19 06:59:49;;;;;;;9.50;6.30;;;13.90;90.00;;;;;;5005548;28;20110;-86
2023/04/19 07:02:15;;;;;;;8.73;5.77;;;14.00;90.00;;;;;;5030677;28;20021;-86
2023/04/19 07:04:41;;;;;;;8.70;5.55;;;14.10;90.00;;;;;;5004992;28;20013;-85
2023/04/19 07:07:06;;;;;;;8.67;5.67;;;14.20;90.00;;;;;;5035743;28;20041;-85
2023/04/19 07:09:32;;;;;;;8.53;4.87;;;14.30;89.80;;;;;;4989082;28;20363;-86
2023/04/19 07:11:58;;;;;;;10.77;5.97;;;14.40;89.70;;;;;;5006167;28;20029;-84
2023/04/19 07:14:24;;;;;;;9.68;5.90;;;14.40;89.50;;;;;;4997488;28;20061;-84
2023/04/19 07:16:52;;;;;;;9.77;6.07;;;14.50;89.60;;;;;;5038501;28;20102;-86
2023/04/19 07:19:19;;;;;;;9.85;5.78;;;14.60;89.70;;;;;;5036417;28;20416;-85
2023/04/19 07:21:45;;;;;;;8.88;6.13;;;14.70;89.80;;;;;;5010428;28;20032;-85
2023/04/19 07:24:10;;;;;;;10.17;6.57;;;14.80;89.50;;;;;;5019172;28;20333;-86
2023/04/19 07:26:36;;;;;;;9.03;5.77;;;14.90;89.40;;;;;;4995878;28;20037;-84
2023/04/19 07:29:02;;;;;;;8.20;5.72;;;15.00;90.10;;;;;;5015599;28;20036;-85
2023/04/19 07:31:28;;;;;;;10.63;6.80;;;15.10;90.30;;;;;;5003889;28;20132;-84
2023/04/19 07:33:54;;;;;;;9.38;6.43;;;15.40;90.60;;;;;;5024657;28;20028;-86
2023/04/19 07:36:20;;;;;;;9.67;5.90;;;15.70;90.70;;;;;;5019183;28;20024;-86
2023/04/19 07:38:46;;;;;;;9.27;5.88;;;16.00;90.70;;;;;;5003782;28;20387;-84
2023/04/19 07:41:12;;;;;;;7.83;5.43;;;16.30;90.80;;;;;;4981440;28;20025;-84
2023/04/19 07:43:37;;;;;;;8.15;5.65;;;16.70;90.90;;;;;;5010235;28;20034;-85
2023/04/19 07:46:15;;;;;;;7.90;5.20;;;17.00;90.80;;;;;;4987224;28;20017;-85
2023/04/19 07:48:41;;;;;;;8.02;5.72;;;17.30;90.10;;;;;;5040726;28;20134;-83
2023/04/19 07:51:08;;;;;;;8.13;5.88;;;17.70;90.10;;;;;;5023978;28;20471;-85
2023/04/19 07:53:34;;;;;;;6.93;4.88;;;17.90;89.70;;;;;;5015014;28;20213;-84
2023/04/19 07:56:00;;;;;;;7.70;5.30;;;18.30;90.10;;;;;;5029726;28;20029;-86
2023/04/19 07:58:25;;;;;;;7.82;4.90;;;18.50;90.20;;;;;;5013683;28;20112;-85
2023/04/19 08:00:51;;;;;;;6.17;4.93;;;18.90;90.30;;;;;;4983809;28;20020;-85
2023/04/19 08:03:17;;;;;;;6.72;4.50;;;19.30;89.50;;;;;;5032327;28;20119;-85
2023/04/19 08:05:42;;;;;;;5.37;4.07;;;19.60;89.40;;;;;;5041496;28;20055;-86
2023/04/19 08:08:08;;;;;;;5.22;4.00;;;19.90;89.30;;;;;;5016961;28;20025;-84
2023/04/19 08:10:34;;;;;;;5.07;3.70;;;20.20;89.40;;;;;;5037075;28;20605;-85
2023/04/19 08:13:00;;;;;;;4.93;3.67;;;20.60;89.20;;;;;;5006715;28;20032;-85
2023/04/19 08:15:26;;;;;;;4.73;3.57;;;20.90;89.20;;;;;;4979552;28;20029;-84
2023/04/19 08:17:51;;;;;;;4.30;3.28;;;21.20;89.60;;;;;;5006364;28;20127;-84
2023/04/19 08:20:18;;;;;;;4.80;3.00;;;21.60;89.10;;;;;;5018212;28;20060;-84
2023/04/19 08:22:44;;;;;;;4.75;3.70;;;22.00;88.70;;;;;;5013636;28;20546;-86
2023/04/19 08:25:10;;;;;;;4.28;3.10;;;22.40;87.20;;;;;;5041312;28;20596;-86
2023/04/19 08:27:35;;;;;;;4.23;3.30;;;22.70;86.50;;;;;;5017817;28;20024;-85
2023/04/19 08:30:02;;;;;;;4.28;3.13;;;23.00;85.70;;;;;;5008836;28;20156;-87
2023/04/19 08:32:28;;;;;;;4.22;3.38;;;23.20;84.20;;;;;;5003717;28;20591;-85
2023/04/19 08:34:53;;;;;;;3.10;2.60;;;23.50;83.10;;;;;;4999937;28;20032;-87
2023/04/19 08:37:19;;;;;;;3.67;2.78;;;23.60;83.20;;;;;;4996721;28;20026;-87
2023/04/19 08:39:45;;;;;;;3.70;3.10;;;23.80;82.80;;;;;;4992925;28;20034;-86
2023/04/19 08:42:11;;;;;;;4.30;3.13;;;24.00;81.60;;;;;;5000900;28;20028;-84
2023/04/19 08:44:38;;;;;;;3.33;2.60;;;24.20;80.80;;;;;;4993524;28;20226;-86
2023/04/19 08:47:05;;;;;;;3.78;2.85;;;24.40;80.40;;;;;;5001979;28;20596;-87
2023/04/19 08:49:37;;;;;;;3.78;2.70;;;24.60;80.20;;;;;;5013966;28;20932;-84
2023/04/19 08:52:05;;;;;;;3.17;2.53;;;24.80;78.90;;;;;;5014730;28;20127;-85
2023/04/19 08:54:31;;;;;;;3.55;2.80;;;25.00;79.60;;;;;;5015703;28;20395;-82
2023/04/19 08:57:02;;;;;;;3.97;2.77;;;25.20;78.90;;;;;;4999741;28;20528;-83
2023/04/19 08:59:29;;;;;;;3.85;2.88;;;25.40;74.00;;;;;;4967789;28;20388;-84
2023/04/19 09:01:58;;;;;;;3.90;3.00;;;25.60;77.20;;;;;;5012488;28;20174;-83
2023/04/19 09:04:24;;;;;;;3.60;2.60;;;25.80;74.70;;;;;;4980681;28;20031;-81
2023/04/19 09:06:50;;;;;;;4.03;2.97;;;25.80;74.90;;;;;;5011654;28;20450;-82
2023/04/19 09:09:17;;;;;;;3.90;3.03;;;25.90;73.00;;;;;;5011990;28;20056;-83
2023/04/19 09:11:43;;;;;;;3.65;2.92;;;26.10;71.30;;;;;;5010922;28;20376;-82
2023/04/19 09:14:15;;;;;;;2.78;2.35;;;26.10;71.80;;;;;;5011297;28;20032;-82
2023/04/19 09:16:44;;;;;;;3.10;2.70;;;26.20;69.50;;;;;;4975233;28;20123;-81
2023/04/19 09:19:11;;;;;;;3.53;2.93;;;26.20;71.60;;;;;;4999929;28;20026;-82
2023/04/19 09:21:38;;;;;;;4.70;3.00;;;26.30;69.60;;;;;;5009779;28;20523;-82
2023/04/19 09:24:05;;;;;;;3.47;2.90;;;26.40;69.00;;;;;;5018762;28;20320;-84
2023/04/19 09:26:31;;;;;;;3.47;2.70;;;26.40;68.00;;;;;;5014423;28;20926;-83
2023/04/19 09:29:04;;;;;;;3.40;2.75;;;26.40;67.70;;;;;;5006707;28;20046;-84
2023/04/19 09:31:35;;;;;;;3.00;2.47;;;26.50;67.70;;;;;;4993055;28;20025;-83
2023/04/19 09:34:14;;;;;;;3.20;2.85;;;26.50;66.40;;;;;;4999346;28;20298;-82
2023/04/19 09:36:40;;;;;;;4.07;2.97;;;26.60;65.60;;;;;;5011797;28;20025;-83
2023/04/19 09:39:06;;;;;;;3.50;2.75;;;26.70;66.90;;;;;;5014222;28;20025;-83
2023/04/19 09:41:32;;;;;;;3.15;2.75;;;26.80;66.80;;;;;;5015894;28;20028;-83
2023/04/19 09:44:14;;;;;;;5.10;3.30;;;26.90;65.90;;;;;;5008445;28;22811;-83
2023/04/19 09:46:41;;;;;;;3.22;2.65;;;27.00;61.80;;;;;;4975893;28;20032;-83
2023/04/19 09:49:13;;;;;;;3.45;2.80;;;27.20;65.90;;;;;;5005415;28;20024;-83
2023/04/19 09:51:43;;;;;;;3.35;2.90;;;27.30;63.30;;;;;;5014798;28;20089;-84
2023/04/19 09:54:10;;;;;;;3.20;2.78;;;27.40;62.80;;;;;;5007580;28;20364;-85
2023/04/19 09:56:37;;;;;;;3.17;2.87;;;27.60;63.70;;;;;;5013843;28;20027;-83
2023/04/19 09:59:08;;;;;;;3.33;2.92;;;27.70;63.60;;;;;;5015852;28;20049;-84
2023/04/19 10:01:52;;;;;;;3.40;2.90;;;27.80;62.90;;;;;;4967817;28;20013;-85
2023/04/19 10:04:22;;;;;;;3.63;3.15;;;27.90;60.90;;;;;;5004036;28;20022;-84
2023/04/19 10:06:49;;;;;;;3.50;3.20;;;28.10;62.30;;;;;;4993244;28;20036;-85
2023/04/19 10:09:16;;;;;;;4.13;2.77;;;28.10;60.30;;;;;;5010680;28;20203;-80
2023/04/19 10:11:47;;;;;;;3.83;3.13;;;28.20;60.30;;;;;;5015334;28;20550;-83
2023/04/19 10:14:15;;;;;;;4.05;2.88;;;28.20;57.10;;;;;;5008245;28;20087;-83
2023/04/19 10:16:41;;;;;;;4.47;3.08;;;28.20;58.20;;;;;;4986251;28;20041;-84
2023/04/19 10:19:12;;;;;;;4.00;3.00;;;28.20;58.20;;;;;;4987581;28;20571;-85
2023/04/19 10:21:41;;;;;;;3.08;2.78;;;28.20;56.80;;;;;;5009601;28;20030;-84
2023/04/19 10:24:08;;;;;;;2.70;2.22;;;28.30;57.50;;;;;;5010251;28;20116;-85
2023/04/19 10:27:05;;;;;;;3.80;3.08;;;28.40;58.80;;;;;;5010100;28;20056;-84
2023/04/19 10:29:53;;;;;;;3.50;3.10;;;28.50;55.90;;;;;;5012165;28;20048;-84
2023/04/19 10:32:19;;;;;;;3.30;2.80;;;28.50;53.70;;;;;;4985965;28;20033;-80
2023/04/19 10:34:47;;;;;;;3.10;2.78;;;28.40;55.90;;;;;;4965356;28;20410;-84
2023/04/19 10:37:13;;;;;;;3.30;2.53;;;28.40;55.00;;;;;;4994607;28;20047;-84
2023/04/19 10:39:43;;;;;;;3.10;2.70;;;28.40;56.50;;;;;;5017689;28;20051;-84
2023/04/19 10:42:09;;;;;;;3.13;2.67;;;28.50;56.10;;;;;;5014231;28;20115;-84
2023/04/19 10:44:35;;;;;;;3.05;2.70;;;28.60;55.90;;;;;;4992186;28;20156;-84
2023/04/19 10:47:01;;;;;;;3.63;2.83;;;28.60;54.60;;;;;;5003407;28;20028;-86
2023/04/19 10:49:28;;;;;;;3.43;3.00;;;28.40;53.90;;;;;;4993021;28;20208;-83
2023/04/19 10:51:53;;;;;;;4.63;3.78;;;28.20;53.20;;;;;;5001095;28;20022;-85
2023/04/19 10:54:30;;;;;;;4.35;3.38;;;27.90;51.70;;;;;;4997734;28;20289;-83
2023/04/19 10:57:03;;;;;;;4.60;2.73;;;27.70;50.90;;;;;;5003816;28;20048;-83
2023/04/19 10:59:30;;;;;;;2.90;2.42;;;27.50;51.80;;;;;;4992479;28;20037;-85
2023/04/19 11:02:01;;;;;;;3.85;2.88;;;27.30;52.60;;;;;;5005755;28;20018;-84
2023/04/19 11:04:30;;;;;;;5.80;3.00;;;27.10;53.60;;;;;;4973638;28;20283;-83
2023/04/19 11:07:00;;;;;;;4.75;3.40;;;27.20;54.50;;;;;;4981743;28;20018;-84
2023/04/19 11:09:37;;;;;;;4.10;3.00;;;27.40;53.50;;;;;;4997475;28;20029;-84
2023/04/19 11:12:10;;;;;;;3.92;3.03;;;27.60;53.70;;;;;;5012159;28;20036;-83
2023/04/19 11:14:42;;;;;;;3.22;2.55;;;27.60;51.80;;;;;;4998924;28;20057;-81
2023/04/19 11:17:29;;;;;;;5.40;3.78;;;27.60;52.00;;;;;;4986341;28;20094;-82
2023/04/19 11:19:57;;;;;;;4.97;3.40;;;27.50;47.70;;;;;;4998789;28;20018;-85
2023/04/19 11:22:34;;;;;;;4.07;3.00;;;27.40;50.10;;;;;;4970890;28;20176;-83
2023/04/19 11:25:05;;;;;;;3.72;2.65;;;27.20;49.30;;;;;;4996035;28;20052;-83
2023/04/19 11:27:32;;;;;;;3.83;2.85;;;27.20;49.60;;;;;;5001829;28;20160;-85
2023/04/19 11:30:12;;;;;;;4.38;2.70;;;27.30;51.10;;;;;;5012330;28;20041;-83
2023/04/19 11:32:50;;;;;;;3.22;2.53;;;27.40;51.30;;;;;;5005986;28;20226;-85
2023/04/19 11:35:21;;;;;;;3.20;2.50;;;27.60;49.60;;;;;;5009198;28;20055;-85
2023/04/19 11:37:46;;;;;;;3.28;2.72;;;27.70;48.80;;;;;;5025442;28;20490;-84
2023/04/19 11:40:18;;;;;;;2.85;2.45;;;27.90;50.40;;;;;;4994718;28;20130;-85
2023/04/19 11:42:44;;;;;;;3.50;2.58;;;28.10;49.20;;;;;;5028846;28;20027;-83
2023/04/19 11:45:11;;;;;;;3.38;2.63;;;28.20;48.50;;;;;;5001580;28;20028;-84
2023/04/19 11:47:47;;;;;;;2.80;2.40;;;28.30;48.20;;;;;;5025673;28;20651;-83
2023/04/19 11:50:32;;;;;;;3.67;2.65;;;28.30;45.50;;;;;;5021322;28;20032;-85
2023/04/19 11:52:58;;;;;;;4.00;2.70;;;28.30;46.30;;;;;;5002839;28;20834;-84
2023/04/19 11:55:25;;;;;;;3.15;2.50;;;28.30;46.30;;;;;;5001231;28;20289;-85
2023/04/19 11:57:51;;;;;;;3.83;2.70;;;28.30;46.00;;;;;;5017851;28;20474;-82
2023/04/19 12:00:27;;;;;;;4.50;2.40;;;28.40;46.30;;;;;;4985482;28;20024;-85
2023/04/19 12:02:53;;;;;;;3.97;2.63;;;28.40;44.10;;;;;;5021694;28;20504;-84
2023/04/19 12:05:19;;;;;;;2.85;2.50;;;28.40;45.60;;;;;;4992400;28;20016;-87
2023/04/19 12:08:05;;;;;;;3.08;2.33;;;28.60;46.20;;;;;;4985310;28;20032;-82
2023/04/19 12:10:31;;;;;;;3.10;2.57;;;28.80;44.30;;;;;;4998933;28;20503;-84
2023/04/19 12:12:57;;;;;;;3.83;2.80;;;28.90;42.70;;;;;;5034804;28;20029;-83
2023/04/19 12:15:39;;;;;;;3.65;2.50;;;28.80;41.20;;;;;;5004464;28;20029;-84
2023/04/19 12:18:05;;;;;;;3.33;2.35;;;28.70;41.60;;;;;;5034992;28;20481;-84
2023/04/19 12:20:33;;;;;;;2.97;2.37;;;28.60;42.00;;;;;;5009159;28;20301;-85
2023/04/19 12:22:59;;;;;;;2.90;2.40;;;28.50;40.90;;;;;;5036571;28;20552;-81
2023/04/19 12:25:33;;;;;;;3.28;2.42;;;28.40;40.80;;;;;;4980582;28;20408;-83
2023/04/19 12:28:01;;;;;;;2.58;2.20;;;28.30;40.40;;;;;;5004558;28;20586;-81
2023/04/19 12:30:27;;;;;;;2.28;1.90;;;28.20;40.60;;;;;;4980237;28;20128;-82
2023/04/19 12:32:56;;;;;;;2.80;2.30;;;28.20;41.10;;;;;;5022032;28;20023;-88
2023/04/19 12:35:26;;;;;;;3.28;2.28;;;28.10;39.70;;;;;;5017944;28;20387;-84
2023/04/19 12:37:56;;;;;;;2.15;1.80;;;28.00;39.60;;;;;;5022487;28;20363;-88
2023/04/19 12:40:22;;;;;;;2.33;1.88;;;28.00;40.20;;;;;;5012021;28;20033;-84
2023/04/19 12:42:48;;;;;;;3.17;2.10;;;27.90;40.40;;;;;;5019113;28;20503;-83
2023/04/19 12:45:15;;;;;;;2.58;2.00;;;28.00;40.70;;;;;;5001133;28;20410;-85